createdAt,value
2023-01-31T00:01:30.246Z,2.51
2023-01-31T00:04:35.373Z,2.48
2023-01-31T00:07:38.991Z,2.44
2023-01-31T00:10:42.672Z,2.36
2023-01-31T00:13:47.503Z,2.34
2023-01-31T00:16:52.238Z,2.38
2023-01-31T00:19:57.198Z,2.33
2023-01-31T00:23:00.859Z,2.34
2023-01-31T00:26:14.066Z,2.30
2023-01-31T00:29:17.767Z,2.28
2023-01-31T00:32:21.746Z,2.17
2023-01-31T00:35:27.499Z,2.17
2023-01-31T00:38:31.250Z,2.12
2023-01-31T00:41:38.353Z,2.09
2023-01-31T00:44:42.143Z,2.10
2023-01-31T00:47:45.881Z,2.12
2023-01-31T00:50:50.936Z,2.15
2023-01-31T00:53:55.421Z,2.21
2023-01-31T00:56:59.106Z,2.31
2023-01-31T01:00:02.884Z,2.29
2023-01-31T01:03:06.462Z,2.32
2023-01-31T01:06:12.785Z,2.34
2023-01-31T01:09:16.349Z,2.48
2023-01-31T01:12:19.995Z,2.60
2023-01-31T01:15:23.627Z,2.56
2023-01-31T01:18:27.339Z,2.50
2023-01-31T01:21:39.447Z,2.51
2023-01-31T01:24:43.722Z,2.49
2023-01-31T01:27:47.411Z,2.50
2023-01-31T01:30:50.991Z,2.47
2023-01-31T01:33:54.671Z,2.46
2023-01-31T01:36:59.656Z,2.48
2023-01-31T01:40:03.521Z,2.48
2023-01-31T01:43:07.214Z,2.48
2023-01-31T01:46:15.182Z,2.49
2023-01-31T01:49:34.240Z,2.50
2023-01-31T01:52:47.100Z,2.51
2023-01-31T01:55:57.207Z,2.54
2023-01-31T01:59:08.373Z,2.45
2023-01-31T02:02:13.974Z,2.40
2023-01-31T02:05:23.980Z,2.40
2023-01-31T02:08:34.557Z,2.33
2023-01-31T02:11:38.384Z,2.35
2023-01-31T02:14:43.631Z,2.34
2023-01-31T02:17:47.245Z,2.30
2023-01-31T02:21:37.999Z,2.35
2023-01-31T02:25:31.835Z,2.33
2023-01-31T02:29:15.025Z,2.42
2023-01-31T02:32:50.060Z,2.48
2023-01-31T02:36:08.543Z,2.55
2023-01-31T02:39:27.848Z,2.57
2023-01-31T02:42:49.012Z,2.58
2023-01-31T02:46:02.787Z,2.57
2023-01-31T02:49:34.642Z,2.56
2023-01-31T02:52:49.724Z,2.58
2023-01-31T02:56:15.085Z,2.57
2023-01-31T02:59:25.927Z,2.59
2023-01-31T03:02:30.351Z,2.63
2023-01-31T03:05:36.460Z,2.59
2023-01-31T03:08:43.981Z,2.56
2023-01-31T03:12:02.353Z,2.60
2023-01-31T03:15:48.379Z,2.61
2023-01-31T03:19:02.129Z,2.63
2023-01-31T03:22:16.441Z,2.61
2023-01-31T03:25:25.110Z,2.64
2023-01-31T03:28:32.887Z,2.68
2023-01-31T03:31:43.313Z,2.68
2023-01-31T03:34:47.985Z,2.70
2023-01-31T03:38:06.183Z,2.74
2023-01-31T03:41:20.155Z,2.74
2023-01-31T03:44:37.101Z,2.76
2023-01-31T03:47:44.673Z,2.68
2023-01-31T03:50:57.734Z,2.64
2023-01-31T03:54:09.416Z,2.56
2023-01-31T03:57:22.765Z,2.49
2023-01-31T04:00:29.601Z,2.43
2023-01-31T04:03:42.718Z,2.42
2023-01-31T04:06:46.439Z,2.36
2023-01-31T04:09:51.720Z,2.38
2023-01-31T04:12:55.449Z,2.38
2023-01-31T04:15:59.180Z,2.39
2023-01-31T04:19:02.909Z,2.40
2023-01-31T04:22:06.635Z,2.40
2023-01-31T04:25:12.629Z,2.43
2023-01-31T04:28:16.194Z,2.47
2023-01-31T04:31:19.868Z,2.44
2023-01-31T04:34:23.580Z,2.44
2023-01-31T04:37:27.177Z,2.44
2023-01-31T04:40:32.155Z,2.40
2023-01-31T04:43:35.733Z,2.43
2023-01-31T04:46:39.639Z,2.37
2023-01-31T04:49:44.247Z,2.35
2023-01-31T04:52:51.501Z,2.33
2023-01-31T04:55:57.481Z,2.28
2023-01-31T04:59:01.563Z,2.27
2023-01-31T05:02:05.150Z,2.28
2023-01-31T05:05:10.237Z,2.27
2023-01-31T05:08:13.832Z,2.30
2023-01-31T05:11:18.909Z,2.27
2023-01-31T05:14:22.545Z,2.30
2023-01-31T05:17:29.811Z,2.29
2023-01-31T05:20:39.687Z,2.33
2023-01-31T05:23:43.450Z,2.32
2023-01-31T05:26:50.663Z,2.36
2023-01-31T05:29:54.879Z,2.36
2023-01-31T05:32:58.650Z,2.35
2023-01-31T05:36:03.700Z,2.38
2023-01-31T05:39:07.345Z,2.41
2023-01-31T05:42:12.761Z,2.42
2023-01-31T05:45:16.791Z,2.43
2023-01-31T05:48:20.527Z,2.44
2023-01-31T05:51:24.189Z,2.46
2023-01-31T05:54:27.823Z,2.45
2023-01-31T05:57:33.373Z,2.50
2023-01-31T06:00:37.961Z,2.50
2023-01-31T06:03:41.492Z,2.52
2023-01-31T06:06:46.133Z,2.53
2023-01-31T06:09:49.814Z,2.56
2023-01-31T06:12:55.100Z,2.60
2023-01-31T06:15:59.332Z,2.65
2023-01-31T06:19:03.123Z,2.70
2023-01-31T06:22:07.012Z,2.71
2023-01-31T06:25:11.798Z,2.79
2023-01-31T06:28:16.878Z,2.78
2023-01-31T06:31:21.094Z,2.83
2023-01-31T06:34:24.892Z,2.85
2023-01-31T06:37:28.570Z,2.88
2023-01-31T06:40:32.755Z,2.90
2023-01-31T06:43:37.863Z,2.86
2023-01-31T06:46:41.706Z,2.88
2023-01-31T06:49:45.318Z,2.92
2023-01-31T06:52:49.116Z,2.96
2023-01-31T06:55:52.826Z,3.12
2023-01-31T06:58:57.938Z,3.47
2023-01-31T07:02:01.791Z,3.14
2023-01-31T07:05:06.235Z,3.15
2023-01-31T07:08:10.046Z,3.16
2023-01-31T07:11:13.834Z,3.17
2023-01-31T07:14:18.901Z,3.20
2023-01-31T07:17:23.047Z,3.20
2023-01-31T07:20:26.915Z,3.24
2023-01-31T07:23:31.151Z,3.20
2023-01-31T07:26:35.103Z,3.29
2023-01-31T07:29:40.177Z,3.42
2023-01-31T07:32:43.978Z,3.30
2023-01-31T07:35:47.587Z,3.26
2023-01-31T07:38:51.171Z,3.23
2023-01-31T07:41:54.757Z,3.22
2023-01-31T07:45:04.712Z,3.23
2023-01-31T07:48:23.689Z,3.24
2023-01-31T07:51:27.469Z,3.24
2023-01-31T07:54:31.185Z,3.28
2023-01-31T07:57:34.889Z,3.32
2023-01-31T08:00:57.132Z,3.33
2023-01-31T08:04:18.271Z,3.38
2023-01-31T08:07:26.298Z,3.39
2023-01-31T08:10:30.827Z,3.42
2023-01-31T08:13:35.537Z,3.43
2023-01-31T08:16:40.657Z,3.47
2023-01-31T08:19:44.870Z,3.53
2023-01-31T08:22:48.641Z,3.55
2023-01-31T08:25:52.391Z,3.57
2023-01-31T08:28:56.064Z,3.60
2023-01-31T08:32:01.896Z,3.65
2023-01-31T08:35:07.618Z,3.63
2023-01-31T08:38:16.550Z,3.66
2023-01-31T08:41:25.056Z,3.65
2023-01-31T08:44:29.046Z,3.67
2023-01-31T08:47:34.131Z,3.68
2023-01-31T08:50:40.214Z,3.73
2023-01-31T08:53:46.233Z,4.07
2023-01-31T08:56:49.945Z,3.88
2023-01-31T08:59:53.519Z,3.85
2023-01-31T09:03:01.685Z,3.90
2023-01-31T09:06:11.992Z,3.93
2023-01-31T09:09:15.570Z,3.94
2023-01-31T09:12:19.272Z,3.99
2023-01-31T09:15:28.906Z,4.05
2023-01-31T09:18:35.763Z,4.09
2023-01-31T09:21:39.675Z,4.05
2023-01-31T09:24:43.280Z,4.04
2023-01-31T09:27:46.884Z,4.03
2023-01-31T09:30:53.583Z,4.03
2023-01-31T09:33:58.769Z,4.02
2023-01-31T09:37:02.353Z,4.05
2023-01-31T09:40:07.241Z,4.04
2023-01-31T09:43:14.215Z,4.08
2023-01-31T09:46:25.219Z,4.06
2023-01-31T09:49:44.983Z,4.10
2023-01-31T09:52:49.259Z,4.11
2023-01-31T09:56:01.252Z,4.14
2023-01-31T09:59:19.684Z,4.12
2023-01-31T10:03:18.408Z,4.19
2023-01-31T10:06:31.713Z,4.21
2023-01-31T10:09:43.917Z,4.14
2023-01-31T10:12:55.627Z,4.14
2023-01-31T10:16:07.795Z,4.15
2023-01-31T10:19:18.328Z,4.14
2023-01-31T10:22:35.597Z,4.14
2023-01-31T10:25:48.762Z,4.16
2023-01-31T10:29:01.600Z,4.16
2023-01-31T10:32:15.940Z,4.17
2023-01-31T10:35:28.019Z,4.16
2023-01-31T10:38:42.008Z,4.17
2023-01-31T10:42:05.225Z,4.14
2023-01-31T10:45:19.793Z,4.15
2023-01-31T10:48:26.934Z,4.15
2023-01-31T10:52:04.572Z,4.16
2023-01-31T10:55:37.249Z,4.19
2023-01-31T10:58:41.418Z,4.21
2023-01-31T11:01:45.045Z,4.40
2023-01-31T11:04:51.936Z,4.33
2023-01-31T11:07:57.556Z,4.31
2023-01-31T11:11:09.917Z,4.35
2023-01-31T11:14:20.304Z,4.33
2023-01-31T11:17:25.764Z,4.35
2023-01-31T11:20:32.866Z,4.37
2023-01-31T11:23:38.227Z,4.39
2023-01-31T11:26:53.523Z,4.43
2023-01-31T11:30:00.263Z,4.43
2023-01-31T11:33:04.178Z,4.51
2023-01-31T11:36:13.929Z,4.51
2023-01-31T11:39:32.658Z,4.53
2023-01-31T11:42:52.795Z,4.54
2023-01-31T11:46:00.416Z,4.59
2023-01-31T11:49:14.591Z,4.61
2023-01-31T11:52:23.002Z,4.62
2023-01-31T11:55:28.220Z,4.68
2023-01-31T11:58:38.222Z,4.71
2023-01-31T12:01:49.916Z,4.72
2023-01-31T12:04:54.114Z,4.76
2023-01-31T12:07:57.851Z,4.76
2023-01-31T12:11:06.126Z,4.85
2023-01-31T12:14:17.255Z,4.81
2023-01-31T12:17:21.820Z,4.87
2023-01-31T12:20:40.562Z,4.94
2023-01-31T12:24:01.863Z,4.93
2023-01-31T12:27:21.237Z,4.98
2023-01-31T12:31:04.366Z,4.94
2023-01-31T12:34:32.497Z,4.92
2023-01-31T12:37:56.448Z,4.97
2023-01-31T12:41:19.746Z,4.98
2023-01-31T12:44:46.663Z,5.06
2023-01-31T12:48:21.564Z,5.03
2023-01-31T12:51:41.195Z,5.10
2023-01-31T12:55:04.408Z,5.16
2023-01-31T12:58:34.448Z,5.20
2023-01-31T13:01:49.823Z,5.17
2023-01-31T13:05:04.732Z,5.22
2023-01-31T13:08:18.057Z,5.25
2023-01-31T13:11:27.379Z,5.27
2023-01-31T13:14:38.695Z,5.33
2023-01-31T13:17:44.766Z,5.27
2023-01-31T13:20:57.113Z,5.25
2023-01-31T13:24:07.905Z,5.26
2023-01-31T13:27:22.980Z,5.29
2023-01-31T13:30:42.895Z,5.33
2023-01-31T13:33:53.694Z,5.32
2023-01-31T13:37:04.263Z,5.32
2023-01-31T13:40:21.577Z,5.38
2023-01-31T13:43:25.338Z,5.41
2023-01-31T13:46:37.679Z,5.41
2023-01-31T13:49:48.800Z,5.40
2023-01-31T13:52:58.454Z,5.38
2023-01-31T13:56:05.634Z,5.39
2023-01-31T13:59:12.138Z,5.41
2023-01-31T14:02:21.213Z,5.42
2023-01-31T14:05:55.352Z,5.43
2023-01-31T14:09:01.934Z,5.47
2023-01-31T14:12:35.695Z,5.50
2023-01-31T14:15:51.307Z,5.50
2023-01-31T14:18:54.946Z,5.53
2023-01-31T14:22:15.616Z,5.56
2023-01-31T14:25:43.707Z,5.60
2023-01-31T14:28:48.107Z,5.64
2023-01-31T14:31:55.858Z,5.72
2023-01-31T14:35:07.631Z,5.70
2023-01-31T14:38:24.368Z,5.75
2023-01-31T14:41:52.546Z,5.75
2023-01-31T14:45:24.826Z,5.75
2023-01-31T14:49:12.933Z,5.80
2023-01-31T14:52:52.919Z,5.86
2023-01-31T14:56:28.019Z,5.83
2023-01-31T14:59:38.939Z,5.84
2023-01-31T15:02:51.240Z,5.87
2023-01-31T15:06:07.032Z,5.96
2023-01-31T15:09:39.793Z,5.97
2023-01-31T15:13:00.900Z,6.04
2023-01-31T15:16:12.042Z,6.03
2023-01-31T15:19:20.223Z,6.01
2023-01-31T15:22:25.743Z,6.07
2023-01-31T15:25:37.824Z,6.13
2023-01-31T15:28:45.829Z,6.09
2023-01-31T15:31:55.005Z,6.13
2023-01-31T15:35:08.668Z,6.09
2023-01-31T15:38:28.301Z,6.13
2023-01-31T15:41:40.027Z,6.14
2023-01-31T15:44:43.722Z,6.21
2023-01-31T15:48:01.336Z,6.22
2023-01-31T15:51:05.301Z,6.26
2023-01-31T15:54:09.526Z,6.23
2023-01-31T15:57:18.320Z,6.26
2023-01-31T16:00:27.633Z,6.29
2023-01-31T16:03:38.061Z,6.22
2023-01-31T16:06:42.045Z,6.18
2023-01-31T16:09:46.460Z,6.16
2023-01-31T16:12:53.252Z,6.06
2023-01-31T16:15:57.496Z,6.00
2023-01-31T16:19:04.009Z,5.99
2023-01-31T16:22:27.885Z,5.93
2023-01-31T16:25:37.341Z,5.91
2023-01-31T16:28:46.448Z,5.79
2023-01-31T16:31:53.831Z,5.79
2023-01-31T16:35:03.279Z,5.83
2023-01-31T16:38:17.725Z,5.98
2023-01-31T16:41:46.549Z,5.93
2023-01-31T16:44:51.459Z,5.88
2023-01-31T16:47:56.480Z,5.93
2023-01-31T16:51:25.006Z,5.97
2023-01-31T16:54:31.842Z,5.90
2023-01-31T16:57:39.201Z,5.95
2023-01-31T17:00:42.914Z,5.87
2023-01-31T17:03:48.702Z,5.87
2023-01-31T17:07:06.553Z,5.82
2023-01-31T17:10:19.159Z,5.78
2023-01-31T17:13:26.252Z,5.79
2023-01-31T17:16:30.238Z,5.77
2023-01-31T17:19:33.881Z,5.81
2023-01-31T17:22:38.845Z,5.81
2023-01-31T17:25:43.597Z,5.77
2023-01-31T17:29:00.732Z,5.74
2023-01-31T17:32:05.131Z,5.79
2023-01-31T17:35:20.301Z,5.74
2023-01-31T17:38:27.176Z,5.60
2023-01-31T17:41:30.850Z,5.67
2023-01-31T17:44:34.498Z,5.66
2023-01-31T17:47:38.514Z,5.60
2023-01-31T17:50:43.482Z,5.48
2023-01-31T17:53:50.288Z,5.43
2023-01-31T17:56:54.420Z,5.40
2023-01-31T17:59:57.958Z,5.40
2023-01-31T18:03:01.624Z,5.35
2023-01-31T18:06:07.101Z,5.27
2023-01-31T18:09:12.930Z,5.29
2023-01-31T18:12:16.525Z,5.29
2023-01-31T18:15:40.227Z,5.23
2023-01-31T18:18:44.889Z,5.23
2023-01-31T18:21:54.974Z,5.31
2023-01-31T18:25:00.598Z,5.22
2023-01-31T18:28:04.419Z,5.25
2023-01-31T18:31:13.833Z,5.21
2023-01-31T18:34:18.185Z,5.24
2023-01-31T18:37:21.873Z,5.15
2023-01-31T18:40:26.829Z,5.12
2023-01-31T18:43:31.653Z,5.12
2023-01-31T18:46:35.339Z,5.12
2023-01-31T18:49:39.075Z,5.10
2023-01-31T18:52:43.985Z,5.06
2023-01-31T18:55:49.006Z,5.01
2023-01-31T18:58:54.553Z,5.04
2023-01-31T19:01:58.221Z,4.92
2023-01-31T19:05:02.154Z,4.85
2023-01-31T19:08:06.318Z,4.86
2023-01-31T19:11:14.134Z,4.81
2023-01-31T19:14:18.116Z,4.79
2023-01-31T19:17:21.776Z,4.83
2023-01-31T19:20:26.699Z,4.87
2023-01-31T19:23:30.780Z,4.85
2023-01-31T19:26:37.194Z,4.71
2023-01-31T19:29:41.685Z,4.77
2023-01-31T19:32:45.451Z,4.69
2023-01-31T19:35:49.237Z,4.69
2023-01-31T19:38:53.360Z,4.67
2023-01-31T19:41:58.796Z,4.60
2023-01-31T19:45:02.314Z,4.62
2023-01-31T19:48:06.818Z,4.69
2023-01-31T19:51:13.383Z,4.78
2023-01-31T19:54:19.327Z,4.54
2023-01-31T19:57:24.711Z,4.42
2023-01-31T20:00:28.376Z,4.48
2023-01-31T20:03:32.222Z,4.63
2023-01-31T20:06:36.331Z,4.71
2023-01-31T20:09:41.900Z,4.70
2023-01-31T20:12:46.913Z,4.64
2023-01-31T20:15:58.433Z,4.63
2023-01-31T20:19:03.844Z,4.59
2023-01-31T20:22:07.519Z,4.64
2023-01-31T20:25:11.917Z,4.71
2023-01-31T20:28:17.094Z,4.60
2023-01-31T20:31:21.003Z,4.61
2023-01-31T20:34:25.127Z,4.57
2023-01-31T20:37:29.468Z,4.55
2023-01-31T20:40:33.098Z,4.54
2023-01-31T20:43:39.217Z,4.58
2023-01-31T20:46:42.734Z,4.73
2023-01-31T20:49:46.359Z,4.70
2023-01-31T20:52:51.471Z,4.71
2023-01-31T20:56:01.011Z,4.59
2023-01-31T20:59:05.992Z,4.63
2023-01-31T21:02:11.258Z,4.61
2023-01-31T21:05:14.944Z,4.57
2023-01-31T21:08:18.765Z,4.49
2023-01-31T21:11:22.499Z,4.51
2023-01-31T21:14:27.506Z,4.54
2023-01-31T21:17:39.841Z,4.47
2023-01-31T21:20:43.828Z,4.42
2023-01-31T21:23:47.472Z,4.34
2023-01-31T21:26:51.179Z,4.31
2023-01-31T21:29:56.166Z,4.45
2023-01-31T21:32:59.777Z,4.46
2023-01-31T21:36:09.662Z,4.47
2023-01-31T21:39:13.629Z,4.47
2023-01-31T21:42:29.977Z,4.51
2023-01-31T21:45:51.620Z,4.52
2023-01-31T21:48:56.346Z,4.56
2023-01-31T21:52:00.042Z,4.61
2023-01-31T21:55:03.624Z,4.60
2023-01-31T21:58:07.705Z,4.57
2023-01-31T22:01:15.747Z,4.54
2023-01-31T22:04:23.520Z,4.53
2023-01-31T22:07:27.187Z,4.41
2023-01-31T22:10:30.768Z,4.39
2023-01-31T22:13:35.316Z,4.48
2023-01-31T22:16:41.217Z,4.48
2023-01-31T22:19:44.905Z,4.47
2023-01-31T22:22:48.825Z,4.44
2023-01-31T22:25:53.692Z,4.61
2023-01-31T22:29:00.677Z,4.57
2023-01-31T22:32:06.170Z,4.51
2023-01-31T22:35:11.062Z,4.55
2023-01-31T22:38:15.147Z,4.49
2023-01-31T22:41:20.226Z,4.44
2023-01-31T22:44:24.098Z,4.39
2023-01-31T22:47:29.152Z,4.39
2023-01-31T22:50:32.841Z,4.41
2023-01-31T22:53:38.583Z,4.36
2023-01-31T22:56:42.336Z,4.38
2023-01-31T22:59:45.995Z,4.43
2023-01-31T23:02:51.318Z,4.45
2023-01-31T23:05:55.040Z,4.42
2023-01-31T23:08:59.080Z,4.40
2023-01-31T23:12:02.738Z,4.38
2023-01-31T23:15:07.361Z,4.39
2023-01-31T23:18:17.256Z,4.35
2023-01-31T23:21:21.214Z,4.34
2023-01-31T23:24:24.888Z,4.32
2023-01-31T23:27:28.996Z,4.30
2023-01-31T23:30:34.146Z,4.26
2023-01-31T23:33:39.185Z,4.20
2023-01-31T23:36:42.764Z,4.24
2023-01-31T23:39:47.366Z,4.19
2023-01-31T23:42:51.091Z,4.18
2023-01-31T23:45:54.739Z,4.08
2023-01-31T23:48:59.865Z,4.08
2023-01-31T23:52:03.873Z,4.10
2023-01-31T23:55:09.072Z,4.05
2023-01-31T23:58:12.740Z,4.04
